Berlin, Connecticut
Current Conditions -  °F | °C
As of 9:53 PM on Friday 19 Dec 2014 (Local Time) from KMMK Reporting Station
Overcast Overcast  
Wind Chill: 25°   Ceiling: 3400
Heat Index: 30°   Visibility: 10mi
Dew Point: 19°   Wind: 5mph
Humidity: 64%   Direction: 350°N
Pressure: 30.14"   Gusts: NA
Location:  41.611°N, 72.7774°W
Report Text: KMMK 200253Z AUTO 35004KT 10SM OVC034 M01/M07 A3014 RMK AO2 SLP207 T10111072 51009 TSNO
Loading
Personal Weather Stations






























Interactive Weather Map New forecast layout! Learn more

10-Day Weather Forecast

Advertisements
Track Severe Weather on mobile